ADDS METAR Data INFO
IDs: Format: Raw Decoded Include TAF

Data at: 1503 UTC 19 Aug 2017

METAR for:KX60 (Williston Muni, FL, US)
Text:KX60 191455Z AUTO 00000KT 9SM CLR 31/28 A3002 RMK A01
Temperature: 31.0°C ( 88°F)
Dewpoint: 28.0°C ( 82°F) [RH = 84%]
Pressure (altimeter):30.02 inches Hg (1016.7 mb)
Winds:calm
Visibility: 9 sm ( 14 km)
Ceiling:at least 12,000 feet AGL
Clouds:sky clear below 12,000 feet AGL
QC Flag:automated observation with no human augmentation